Time;durP1;ratioP1;P1;durP2;ratioP2;P2;SDS_P1;SDS_P2;PMS_P1;PMS_P2;Temp;Humidity;BMP_temperature;BMP_pressure;BME280_temperature;BME280_humidity;BME280_pressure;Samples;Min_cycle;Max_cycle;Signal;HPM_P1;HPM_P2
2022/04/06 00:00:13;;;;;;;16.55;6.85;;;11.00;86.50;;;;;;5137405;28;20031;-66
2022/04/06 00:02:40;;;;;;;14.48;5.30;;;11.00;86.30;;;;;;5137415;28;20111;-66
2022/04/06 00:05:10;;;;;;;17.95;5.72;;;11.00;86.20;;;;;;5137197;28;20028;-66
2022/04/06 00:07:36;;;;;;;14.23;5.18;;;11.00;86.30;;;;;;5137230;28;20024;-66
2022/04/06 00:10:04;;;;;;;18.95;5.65;;;11.00;86.40;;;;;;5137197;27;20019;-66
2022/04/06 00:12:30;;;;;;;15.63;5.53;;;10.90;86.30;;;;;;5137121;28;20031;-66
2022/04/06 00:14:56;;;;;;;17.08;5.68;;;10.90;86.40;;;;;;5137105;28;20118;-66
2022/04/06 00:17:22;;;;;;;13.18;5.95;;;10.90;86.50;;;;;;5137083;28;20039;-66
2022/04/06 00:19:47;;;;;;;12.85;5.50;;;10.90;86.50;;;;;;5136997;28;20043;-66
2022/04/06 00:22:13;;;;;;;19.08;5.32;;;10.90;86.40;;;;;;5137063;28;20548;-66
2022/04/06 00:24:39;;;;;;;12.07;5.00;;;10.90;86.70;;;;;;5136818;28;20031;-66
2022/04/06 00:27:05;;;;;;;14.35;5.28;;;10.90;86.50;;;;;;5136876;28;20027;-66
2022/04/06 00:29:30;;;;;;;17.10;5.93;;;10.90;86.40;;;;;;5136718;28;20044;-66
2022/04/06 00:31:56;;;;;;;17.10;5.22;;;10.90;86.40;;;;;;5136836;28;20023;-66
2022/04/06 00:35:28;;;;;;;14.77;6.15;;;10.90;86.10;;;;;;5135946;28;20027;-66
2022/04/06 00:37:08;;;;;;;16.70;5.88;;;10.90;86.40;;;;;;5136389;28;20043;-66
2022/04/06 00:39:33;;;;;;;19.48;6.57;;;10.90;86.30;;;;;;5136676;28;20024;-66
2022/04/06 00:41:59;;;;;;;14.07;5.18;;;10.80;86.30;;;;;;5135514;28;20083;-66
2022/04/06 00:44:27;;;;;;;12.05;5.30;;;10.90;86.40;;;;;;5136430;28;20032;-66
2022/04/06 00:46:52;;;;;;;17.02;6.03;;;10.90;86.40;;;;;;5136520;28;20039;-66
2022/04/06 00:49:18;;;;;;;16.33;5.95;;;10.80;86.50;;;;;;5136468;28;20035;-66
2022/04/06 00:51:47;;;;;;;16.15;5.57;;;10.80;87.50;;;;;;5135306;28;20028;-66
2022/04/06 00:54:19;;;;;;;16.63;5.53;;;10.80;86.50;;;;;;5136415;28;20023;-66
2022/04/06 00:56:46;;;;;;;20.08;6.03;;;10.80;86.50;;;;;;5136381;28;20024;-66
2022/04/06 00:59:14;;;;;;;14.18;5.47;;;10.80;86.50;;;;;;5136259;27;20031;-66
2022/04/06 01:01:40;;;;;;;14.45;5.07;;;10.80;86.50;;;;;;5135303;28;20023;-66
2022/04/06 01:04:06;;;;;;;16.23;5.30;;;10.80;86.40;;;;;;5135052;28;20372;-66
2022/04/06 01:06:31;;;;;;;12.48;5.38;;;10.80;86.50;;;;;;5135133;28;20027;-66
2022/04/06 01:08:57;;;;;;;19.77;6.47;;;10.80;86.40;;;;;;5135079;28;20031;-66
2022/04/06 01:11:24;;;;;;;15.35;5.75;;;10.80;86.50;;;;;;5136022;27;20020;-66
2022/04/06 01:13:51;;;;;;;13.52;5.35;;;10.80;86.40;;;;;;5135938;28;20016;-66
2022/04/06 01:16:17;;;;;;;17.45;5.70;;;10.70;86.40;;;;;;5135915;28;20027;-66
2022/04/06 01:18:43;;;;;;;17.13;5.22;;;10.80;86.40;;;;;;5135871;28;20028;-66
2022/04/06 01:21:11;;;;;;;16.30;5.68;;;10.80;86.40;;;;;;5135814;28;20032;-66
2022/04/06 01:23:41;;;;;;;14.27;4.90;;;10.80;86.50;;;;;;5135801;28;20515;-66
2022/04/06 01:26:07;;;;;;;12.80;4.72;;;10.80;86.40;;;;;;5135803;28;20069;-66
2022/04/06 01:28:33;;;;;;;15.82;5.40;;;10.70;86.20;;;;;;5135626;28;20034;-66
2022/04/06 01:30:58;;;;;;;17.52;5.50;;;10.70;86.20;;;;;;5134648;28;20079;-66
2022/04/06 01:33:24;;;;;;;15.57;5.15;;;10.80;86.20;;;;;;5134640;28;20028;-66
2022/04/06 01:35:49;;;;;;;13.63;5.05;;;10.70;86.20;;;;;;5135310;28;20059;-66
2022/04/06 01:38:15;;;;;;;13.25;4.57;;;10.70;86.00;;;;;;5135564;28;20478;-66
2022/04/06 01:40:41;;;;;;;15.30;4.53;;;10.70;85.80;;;;;;5135403;28;20058;-66
2022/04/06 01:43:06;;;;;;;13.52;5.03;;;10.70;85.90;;;;;;5135352;28;20051;-66
2022/04/06 01:45:32;;;;;;;17.85;5.35;;;10.70;85.80;;;;;;5135278;28;20019;-66
2022/04/06 01:47:58;;;;;;;11.90;4.60;;;10.70;85.80;;;;;;5135258;28;20507;-66
2022/04/06 01:53:08;;;;;;;18.80;4.95;;;10.70;86.90;;;;;;5135322;28;20047;-66
2022/04/06 01:55:34;;;;;;;14.90;4.60;;;10.70;86.10;;;;;;5135130;28;20031;-66
2022/04/06 01:57:59;;;;;;;13.07;5.10;;;10.70;85.80;;;;;;5135047;28;20027;-66
2022/04/06 02:00:26;;;;;;;16.80;4.78;;;10.70;85.80;;;;;;5135035;28;20034;-66
2022/04/06 02:02:53;;;;;;;18.85;4.72;;;10.70;85.80;;;;;;5135132;27;20023;-66
2022/04/06 02:05:20;;;;;;;16.85;3.83;;;10.70;85.80;;;;;;5134921;28;20083;-66
2022/04/06 02:07:46;;;;;;;12.05;5.20;;;10.70;85.20;;;;;;5133867;28;20046;-68
2022/04/06 02:10:13;;;;;;;12.15;3.80;;;10.60;85.40;;;;;;5134893;28;20055;-68
2022/04/06 02:12:40;;;;;;;12.80;4.15;;;10.70;85.40;;;;;;5133738;28;20015;-68
2022/04/06 02:15:08;;;;;;;9.75;3.58;;;10.60;85.40;;;;;;5133782;28;20034;-68
2022/04/06 02:17:34;;;;;;;12.63;4.20;;;10.70;85.60;;;;;;5134768;28;20062;-68
2022/04/06 02:19:59;;;;;;;13.13;4.18;;;10.60;85.10;;;;;;5134796;28;20024;-68
2022/04/06 02:22:25;;;;;;;14.00;4.47;;;10.60;85.40;;;;;;5134721;28;20035;-68
2022/04/06 02:24:51;;;;;;;13.57;4.65;;;10.60;85.30;;;;;;5134618;28;20039;-68
2022/04/06 02:27:17;;;;;;;12.85;3.55;;;10.60;85.10;;;;;;5134539;28;20019;-68
2022/04/06 02:29:42;;;;;;;13.48;4.03;;;10.60;85.00;;;;;;5133352;28;20100;-68
2022/04/06 02:32:09;;;;;;;15.43;3.83;;;10.50;85.00;;;;;;5134430;28;20046;-68
2022/04/06 02:34:35;;;;;;;12.48;3.92;;;10.60;85.00;;;;;;5134429;28;20110;-68
2022/04/06 02:37:01;;;;;;;11.55;3.85;;;10.60;84.90;;;;;;5133227;28;20044;-68
2022/04/06 02:39:26;;;;;;;11.65;3.50;;;10.60;84.60;;;;;;5134377;28;20503;-68
2022/04/06 02:41:53;;;;;;;13.35;3.60;;;10.50;84.50;;;;;;5133327;28;20042;-68
2022/04/06 02:44:18;;;;;;;10.38;3.63;;;10.60;84.30;;;;;;5134189;28;20095;-68
2022/04/06 02:46:46;;;;;;;10.05;3.13;;;10.50;84.10;;;;;;5134220;28;20019;-68
2022/04/06 02:49:12;;;;;;;7.75;2.95;;;10.50;84.40;;;;;;5134191;28;20024;-68
2022/04/06 02:51:38;;;;;;;16.55;3.63;;;10.50;84.30;;;;;;5134119;28;20024;-67
2022/04/06 02:54:04;;;;;;;18.08;3.63;;;10.50;83.90;;;;;;5134084;28;20034;-68
2022/04/06 02:56:29;;;;;;;14.27;3.10;;;10.50;83.90;;;;;;5134193;28;20043;-68
2022/04/06 02:58:55;;;;;;;7.55;2.60;;;10.50;84.10;;;;;;5134102;28;20024;-68
2022/04/06 03:01:21;;;;;;;12.38;3.10;;;10.50;83.80;;;;;;5134055;28;20028;-68
2022/04/06 03:03:47;;;;;;;11.82;3.05;;;10.50;83.90;;;;;;5133417;28;20031;-68
2022/04/06 03:06:13;;;;;;;13.63;3.30;;;10.50;83.70;;;;;;5134118;28;20028;-68
2022/04/06 03:08:38;;;;;;;13.77;3.33;;;10.50;84.50;;;;;;5133914;28;20012;-68
2022/04/06 03:11:04;;;;;;;12.65;3.45;;;10.50;83.60;;;;;;5133914;28;20077;-68
2022/04/06 03:13:30;;;;;;;14.25;2.90;;;10.50;83.70;;;;;;5133865;28;20026;-68
2022/04/06 03:15:56;;;;;;;11.93;3.38;;;10.40;83.10;;;;;;5133794;28;20079;-68
2022/04/06 03:18:22;;;;;;;9.82;3.05;;;10.40;83.40;;;;;;5133836;28;20024;-68
2022/04/06 03:20:48;;;;;;;8.93;3.30;;;10.50;83.30;;;;;;5133790;28;20035;-68
2022/04/06 03:23:16;;;;;;;13.98;3.20;;;10.50;83.20;;;;;;5133742;28;20020;-68
2022/04/06 03:25:42;;;;;;;11.20;2.95;;;10.50;82.80;;;;;;5133617;28;20038;-68
2022/04/06 03:28:08;;;;;;;9.52;3.05;;;10.40;83.00;;;;;;5133670;28;20034;-68
2022/04/06 03:30:34;;;;;;;13.23;3.40;;;10.40;82.80;;;;;;5133820;28;20048;-68
2022/04/06 03:32:59;;;;;;;7.65;3.10;;;10.40;83.10;;;;;;5133707;28;20020;-68
2022/04/06 03:35:26;;;;;;;8.68;2.83;;;10.40;83.20;;;;;;5132391;28;20055;-68
2022/04/06 03:37:51;;;;;;;11.60;2.92;;;10.40;82.70;;;;;;5133619;28;20035;-68
2022/04/06 03:40:17;;;;;;;9.88;2.58;;;10.40;82.90;;;;;;5133653;28;20205;-68
2022/04/06 03:42:43;;;;;;;11.70;2.83;;;10.30;82.60;;;;;;5133617;28;20027;-68
2022/04/06 03:45:09;;;;;;;11.23;3.53;;;10.30;82.60;;;;;;5133463;28;20036;-68
2022/04/06 03:47:36;;;;;;;7.05;2.53;;;10.30;82.50;;;;;;5133604;28;20023;-69
2022/04/06 03:50:04;;;;;;;7.78;3.35;;;10.30;82.60;;;;;;5133570;28;20035;-68
2022/04/06 03:52:30;;;;;;;6.32;2.75;;;10.30;82.50;;;;;;5133451;28;20026;-69
2022/04/06 03:54:56;;;;;;;10.85;2.80;;;10.30;83.30;;;;;;5133446;28;20024;-68
2022/04/06 03:57:22;;;;;;;8.18;2.72;;;10.30;82.10;;;;;;5133472;28;20031;-68
2022/04/06 03:59:47;;;;;;;8.05;2.88;;;10.30;81.80;;;;;;5133571;28;20033;-68
2022/04/06 04:02:13;;;;;;;7.53;2.30;;;10.30;81.80;;;;;;5133382;28;20020;-68
2022/04/06 04:04:39;;;;;;;10.93;2.72;;;10.40;81.90;;;;;;5133311;28;20032;-68
2022/04/06 04:07:07;;;;;;;7.78;2.85;;;10.30;81.50;;;;;;5133333;28;20024;-68
2022/04/06 04:09:33;;;;;;;9.00;2.40;;;10.30;81.40;;;;;;5133379;28;20020;-68
2022/04/06 04:11:59;;;;;;;8.30;2.55;;;10.30;81.30;;;;;;5133346;28;20027;-68
2022/04/06 04:14:25;;;;;;;7.30;2.22;;;10.30;81.30;;;;;;5133292;28;20027;-68
2022/04/06 04:16:51;;;;;;;9.10;2.40;;;10.30;81.20;;;;;;5135692;28;20030;-68
2022/04/06 04:19:16;;;;;;;7.10;2.53;;;10.30;81.00;;;;;;5137113;28;20027;-68
2022/04/06 04:21:43;;;;;;;15.45;2.58;;;10.30;81.00;;;;;;5136975;28;20043;-68
2022/04/06 04:24:09;;;;;;;8.35;2.40;;;10.30;80.40;;;;;;5136885;28;20027;-68
2022/04/06 04:26:36;;;;;;;6.82;2.50;;;10.20;80.50;;;;;;5136951;28;20027;-68
2022/04/06 04:29:03;;;;;;;7.22;2.83;;;10.20;80.70;;;;;;5136825;28;20047;-68
2022/04/06 04:31:28;;;;;;;6.78;2.20;;;10.20;80.60;;;;;;5136825;28;20020;-68
2022/04/06 04:33:55;;;;;;;5.80;2.65;;;10.30;80.50;;;;;;5136788;28;20069;-68
2022/04/06 04:36:21;;;;;;;8.13;2.35;;;10.20;80.40;;;;;;5136534;27;20059;-68
2022/04/06 04:38:47;;;;;;;11.88;2.40;;;10.20;79.80;;;;;;5136698;28;20034;-68
2022/04/06 04:41:13;;;;;;;7.47;2.25;;;10.20;80.20;;;;;;5135598;28;20012;-68
2022/04/06 04:43:39;;;;;;;7.40;2.05;;;10.20;80.30;;;;;;5136584;28;20589;-68
2022/04/06 04:46:05;;;;;;;10.52;2.55;;;10.20;80.20;;;;;;5136569;28;20035;-68
2022/04/06 04:48:31;;;;;;;8.15;2.10;;;10.20;79.90;;;;;;5135527;28;20053;-68
2022/04/06 04:50:57;;;;;;;8.10;2.30;;;10.20;79.80;;;;;;5136408;28;20091;-68
2022/04/06 04:53:23;;;;;;;5.97;2.40;;;10.10;80.10;;;;;;5136401;28;20033;-68
2022/04/06 04:55:49;;;;;;;6.70;2.15;;;10.20;80.20;;;;;;5136371;28;20026;-68
2022/04/06 04:58:15;;;;;;;8.95;2.10;;;10.20;80.40;;;;;;5136336;27;20051;-68
2022/04/06 05:00:40;;;;;;;10.05;2.30;;;10.20;80.60;;;;;;5136223;28;20031;-68
2022/04/06 05:03:07;;;;;;;8.27;2.53;;;10.10;80.50;;;;;;5136187;28;20049;-67
2022/04/06 05:05:33;;;;;;;10.65;2.60;;;10.10;80.70;;;;;;5136111;28;20020;-67
2022/04/06 05:07:59;;;;;;;7.78;2.90;;;10.10;81.00;;;;;;5136088;28;20045;-67
2022/04/06 05:10:26;;;;;;;14.35;3.00;;;10.20;81.20;;;;;;5136092;28;20019;-68
2022/04/06 05:12:52;;;;;;;10.55;3.20;;;10.20;81.20;;;;;;5136050;28;20023;-68
2022/04/06 05:15:19;;;;;;;10.30;3.13;;;10.20;81.50;;;;;;5134984;28;20024;-68
2022/04/06 05:17:45;;;;;;;11.77;3.20;;;10.20;81.50;;;;;;5135940;28;20031;-68
2022/04/06 05:20:11;;;;;;;8.25;3.30;;;10.10;81.70;;;;;;5135835;28;20024;-68
2022/04/06 05:22:37;;;;;;;8.77;2.72;;;10.20;82.00;;;;;;5135826;28;20030;-68
2022/04/06 05:25:04;;;;;;;7.72;3.08;;;10.10;82.10;;;;;;5134801;28;20028;-68
2022/04/06 05:27:31;;;;;;;8.57;2.97;;;10.20;82.40;;;;;;5135192;28;20118;-68
2022/04/06 05:29:57;;;;;;;10.20;3.42;;;10.20;82.50;;;;;;5135683;28;20020;-68
2022/04/06 05:32:22;;;;;;;9.70;4.10;;;10.10;82.70;;;;;;5135662;28;20028;-68
2022/04/06 05:34:48;;;;;;;8.43;4.18;;;10.10;82.50;;;;;;5135684;28;20390;-68
2022/04/06 05:37:14;;;;;;;13.07;3.97;;;10.20;82.50;;;;;;5134216;28;20051;-68
2022/04/06 05:39:40;;;;;;;18.05;4.18;;;10.20;82.30;;;;;;5135467;28;20055;-68
2022/04/06 05:42:06;;;;;;;10.85;3.83;;;10.20;82.30;;;;;;5135413;28;20039;-68
2022/04/06 05:44:31;;;;;;;12.40;4.20;;;10.20;82.50;;;;;;5134399;28;20036;-68
2022/04/06 05:46:57;;;;;;;11.80;3.47;;;10.20;82.60;;;;;;5134332;28;20024;-68
2022/04/06 05:49:23;;;;;;;13.35;3.88;;;10.20;82.50;;;;;;5135192;28;20016;-68
2022/04/06 05:51:49;;;;;;;13.48;3.88;;;10.20;82.60;;;;;;5135244;28;20051;-68
2022/04/06 05:54:14;;;;;;;8.48;3.40;;;10.20;82.50;;;;;;5135178;28;20030;-68
2022/04/06 05:56:40;;;;;;;10.00;3.15;;;10.20;81.80;;;;;;5135146;28;20034;-68
2022/04/06 05:59:06;;;;;;;11.93;4.15;;;10.20;81.70;;;;;;5135061;28;20020;-68
2022/04/06 06:01:32;;;;;;;7.75;3.20;;;10.20;81.80;;;;;;5134849;28;20075;-68
2022/04/06 06:03:57;;;;;;;8.93;3.17;;;10.20;81.70;;;;;;5134932;28;20520;-68
2022/04/06 06:06:23;;;;;;;10.23;4.00;;;10.20;81.80;;;;;;5134959;28;20031;-68
2022/04/06 06:08:48;;;;;;;11.07;3.05;;;10.30;81.80;;;;;;5134894;28;20039;-68
2022/04/06 06:11:14;;;;;;;14.80;3.67;;;10.30;81.60;;;;;;5134812;28;20031;-68
2022/04/06 06:13:40;;;;;;;7.32;3.08;;;10.20;81.30;;;;;;5133742;28;20111;-68
2022/04/06 06:16:06;;;;;;;10.40;2.80;;;10.20;81.60;;;;;;5134750;28;20038;-68
2022/04/06 06:18:31;;;;;;;12.63;3.17;;;10.20;81.40;;;;;;5134631;28;20057;-68
2022/04/06 06:21:00;;;;;;;11.10;3.00;;;10.20;81.40;;;;;;5134646;28;20027;-68
2022/04/06 06:23:26;;;;;;;8.88;3.13;;;10.20;81.50;;;;;;5134599;28;20035;-68
2022/04/06 06:25:52;;;;;;;9.60;2.58;;;10.30;80.50;;;;;;5134502;28;20031;-68
2022/04/06 06:28:18;;;;;;;6.65;2.30;;;10.30;80.60;;;;;;5133451;28;20053;-68
2022/04/06 06:30:43;;;;;;;7.45;2.45;;;10.30;81.00;;;;;;5134520;28;20024;-68
2022/04/06 06:33:09;;;;;;;12.55;2.92;;;10.30;80.80;;;;;;5134372;28;20050;-68
2022/04/06 06:35:34;;;;;;;10.75;2.72;;;10.30;79.90;;;;;;5134034;28;20056;-68
2022/04/06 06:38:00;;;;;;;9.05;2.55;;;10.30;79.60;;;;;;5133902;28;20042;-68
2022/04/06 06:40:27;;;;;;;9.63;2.35;;;10.30;79.60;;;;;;5134016;28;20023;-68
2022/04/06 06:42:53;;;;;;;8.68;2.25;;;10.30;80.20;;;;;;5134256;28;20043;-68
2022/04/06 06:45:19;;;;;;;11.40;2.33;;;10.40;78.30;;;;;;5134168;28;20031;-68
2022/04/06 06:47:46;;;;;;;5.22;2.08;;;10.40;77.80;;;;;;5134242;28;20027;-68
2022/04/06 06:50:14;;;;;;;7.05;2.10;;;10.40;77.80;;;;;;5134156;28;20034;-68
2022/04/06 06:52:40;;;;;;;3.85;1.60;;;10.40;78.00;;;;;;5134094;28;20020;-67
2022/04/06 06:55:07;;;;;;;6.50;1.90;;;10.40;76.00;;;;;;5134210;28;20028;-68
2022/04/06 06:57:34;;;;;;;9.73;2.63;;;10.50;75.60;;;;;;5134209;28;20016;-68
2022/04/06 07:00:00;;;;;;;3.65;1.70;;;10.40;75.70;;;;;;5134047;28;20024;-68
2022/04/06 07:02:25;;;;;;;5.10;1.83;;;10.50;74.00;;;;;;5134012;28;20034;-68
2022/04/06 07:04:51;;;;;;;4.40;2.00;;;10.50;74.50;;;;;;5132552;28;20032;-68
2022/04/06 07:07:17;;;;;;;5.13;1.95;;;10.50;73.50;;;;;;5132724;28;20088;-68
2022/04/06 07:09:43;;;;;;;4.60;1.63;;;10.50;73.80;;;;;;5133971;28;20045;-68
2022/04/06 07:12:10;;;;;;;5.53;1.88;;;10.50;72.80;;;;;;5133870;28;20028;-68
2022/04/06 07:14:36;;;;;;;3.40;1.48;;;10.50;73.30;;;;;;5133931;28;20021;-68
2022/04/06 07:17:03;;;;;;;4.82;1.98;;;10.60;73.30;;;;;;5133915;28;20049;-68
2022/04/06 07:19:28;;;;;;;6.38;1.70;;;10.60;73.20;;;;;;5133809;28;20131;-68
2022/04/06 07:21:54;;;;;;;5.00;1.60;;;10.70;73.80;;;;;;5132965;28;20032;-68
2022/04/06 07:24:19;;;;;;;4.47;1.63;;;10.60;73.80;;;;;;5132710;28;20039;-68
2022/04/06 07:26:45;;;;;;;3.80;1.27;;;10.60;72.90;;;;;;5133733;28;20043;-68
2022/04/06 07:29:11;;;;;;;4.47;1.30;;;10.70;73.40;;;;;;5133594;28;20035;-68
2022/04/06 07:31:38;;;;;;;6.30;1.50;;;10.60;72.60;;;;;;5133724;28;20031;-69
2022/04/06 07:34:05;;;;;;;3.10;1.20;;;10.60;71.90;;;;;;5133711;28;20045;-68
2022/04/06 07:36:32;;;;;;;4.63;1.75;;;10.70;71.70;;;;;;5133360;28;20036;-68
2022/04/06 07:38:59;;;;;;;7.03;1.55;;;10.70;71.40;;;;;;5133660;28;20024;-68
2022/04/06 07:41:25;;;;;;;3.10;1.15;;;10.70;71.30;;;;;;5133627;28;20024;-68
2022/04/06 07:43:51;;;;;;;5.63;1.60;;;10.70;71.80;;;;;;5133485;28;20034;-68
2022/04/06 07:46:16;;;;;;;7.25;1.83;;;10.70;72.40;;;;;;5133547;28;20031;-68
2022/04/06 07:48:42;;;;;;;5.57;1.30;;;10.70;72.90;;;;;;5133589;28;20027;-68
2022/04/06 07:51:08;;;;;;;5.38;1.90;;;10.80;72.30;;;;;;5135586;28;20087;-68
2022/04/06 07:53:34;;;;;;;5.13;1.83;;;10.70;72.90;;;;;;5137585;27;20016;-68
2022/04/06 07:56:00;;;;;;;5.50;1.77;;;10.70;73.60;;;;;;5137526;28;20103;-68
2022/04/06 07:58:26;;;;;;;7.35;2.28;;;10.70;74.20;;;;;;5137463;28;20048;-68
2022/04/06 08:00:51;;;;;;;6.32;1.95;;;10.70;75.30;;;;;;5136454;28;20024;-68
2022/04/06 08:03:17;;;;;;;8.35;2.35;;;10.70;75.30;;;;;;5137509;28;20024;-68
2022/04/06 08:05:43;;;;;;;7.70;2.25;;;10.70;75.50;;;;;;5137244;28;20031;-67
2022/04/06 08:08:09;;;;;;;8.25;2.45;;;10.70;75.90;;;;;;5137320;28;20087;-67
2022/04/06 08:10:35;;;;;;;8.05;2.70;;;10.70;76.00;;;;;;5137210;28;20028;-67
2022/04/06 08:13:01;;;;;;;7.97;2.50;;;10.80;77.30;;;;;;5137199;28;20088;-67
2022/04/06 08:15:28;;;;;;;8.48;2.17;;;10.80;76.90;;;;;;5137141;28;20027;-67
2022/04/06 08:17:54;;;;;;;8.10;2.53;;;10.80;77.20;;;;;;5137170;28;20369;-67
2022/04/06 08:20:20;;;;;;;6.63;2.50;;;10.80;77.10;;;;;;5137172;28;20059;-67
2022/04/06 08:22:47;;;;;;;7.18;2.60;;;10.80;77.10;;;;;;5137074;28;20019;-68
2022/04/06 08:25:17;;;;;;;6.07;2.25;;;10.70;77.30;;;;;;5137052;28;20083;-67
2022/04/06 08:27:43;;;;;;;7.78;2.60;;;10.70;77.30;;;;;;5136979;28;20028;-67
2022/04/06 08:30:12;;;;;;;6.53;2.92;;;10.70;77.20;;;;;;5136908;28;20020;-67
2022/04/06 08:32:38;;;;;;;4.03;2.42;;;10.70;77.60;;;;;;5136821;28;20020;-67
2022/04/06 08:35:05;;;;;;;8.05;2.90;;;10.70;77.90;;;;;;5135800;28;20054;-68
2022/04/06 08:37:31;;;;;;;7.90;2.65;;;10.70;77.60;;;;;;5136588;28;20051;-68
2022/04/06 08:39:57;;;;;;;6.78;3.00;;;10.60;78.10;;;;;;5136697;28;20480;-68
2022/04/06 08:42:25;;;;;;;9.02;2.80;;;10.70;77.80;;;;;;5136615;28;20027;-68
2022/04/06 08:44:51;;;;;;;6.88;2.60;;;10.70;78.10;;;;;;5118706;28;20024;-68
2022/04/06 08:47:18;;;;;;;6.95;2.67;;;10.60;77.70;;;;;;5136586;28;20031;-68
2022/04/06 08:49:45;;;;;;;6.15;2.70;;;10.60;77.70;;;;;;5135483;28;20035;-68
2022/04/06 08:52:11;;;;;;;7.00;2.80;;;10.60;78.30;;;;;;5136448;28;20020;-68
2022/04/06 08:54:37;;;;;;;7.38;2.63;;;10.60;78.20;;;;;;5136404;28;20080;-68
2022/04/06 08:57:05;;;;;;;7.90;2.47;;;10.60;78.60;;;;;;5136413;28;20053;-68
2022/04/06 08:59:31;;;;;;;8.85;2.97;;;10.60;78.30;;;;;;5136249;28;20031;-67
2022/04/06 09:01:57;;;;;;;6.85;3.20;;;10.70;78.20;;;;;;5135399;28;20019;-68
2022/04/06 09:04:24;;;;;;;9.00;2.78;;;10.70;78.40;;;;;;5136236;28;20038;-67
2022/04/06 09:06:50;;;;;;;8.18;2.53;;;10.70;78.00;;;;;;5136186;28;20019;-69
2022/04/06 09:09:24;;;;;;;8.77;3.28;;;10.70;78.10;;;;;;5136125;28;20498;-69
2022/04/06 09:11:50;;;;;;;7.05;2.42;;;10.70;77.60;;;;;;5136084;28;20061;-69
2022/04/06 09:14:28;;;;;;;6.43;2.20;;;10.80;78.00;;;;;;5135083;28;20028;-70
2022/04/06 09:17:06;;;;;;;6.90;2.15;;;10.70;77.70;;;;;;5135064;28;20053;-70
2022/04/06 09:19:46;;;;;;;6.20;2.55;;;10.80;78.10;;;;;;5134904;28;20031;-70
2022/04/06 09:22:11;;;;;;;7.57;2.50;;;10.80;78.80;;;;;;5135762;28;20024;-69
2022/04/06 09:24:37;;;;;;;3.65;2.08;;;10.90;79.20;;;;;;5134637;28;20030;-69
2022/04/06 09:27:04;;;;;;;8.38;2.80;;;10.90;78.60;;;;;;5135776;28;20018;-69
2022/04/06 09:29:35;;;;;;;6.03;2.58;;;10.90;78.40;;;;;;5135631;28;20020;-69
2022/04/06 09:32:08;;;;;;;5.70;2.55;;;10.80;78.50;;;;;;5135736;28;20031;-69
2022/04/06 09:34:35;;;;;;;4.78;2.13;;;10.80;79.00;;;;;;5135645;28;20032;-69
2022/04/06 09:37:30;;;;;;;7.72;2.47;;;10.80;78.90;;;;;;5134481;28;20043;-69
2022/04/06 09:39:57;;;;;;;8.98;2.97;;;10.80;79.40;;;;;;5135531;28;20075;-69
2022/04/06 09:42:27;;;;;;;9.30;2.80;;;10.90;80.40;;;;;;5134433;28;20016;-69
2022/04/06 09:47:54;;;;;;;4.97;2.33;;;10.80;80.00;;;;;;5134686;28;20030;-68
2022/04/06 09:50:26;;;;;;;9.55;3.25;;;10.80;81.00;;;;;;5135285;28;20022;-69
2022/04/06 09:52:53;;;;;;;7.70;2.67;;;10.80;81.10;;;;;;5135434;28;20026;-68
2022/04/06 09:55:20;;;;;;;6.15;2.50;;;10.80;81.70;;;;;;5135256;28;20031;-69
2022/04/06 09:57:51;;;;;;;5.32;2.60;;;10.70;81.30;;;;;;5135243;28;20024;-69
2022/04/06 10:00:31;;;;;;;6.32;2.60;;;10.80;80.60;;;;;;5135237;28;20020;-69
2022/04/06 10:03:10;;;;;;;9.52;2.70;;;10.70;81.60;;;;;;5135163;28;20032;-69
2022/04/06 10:05:38;;;;;;;6.85;3.10;;;10.70;81.10;;;;;;5134931;28;20015;-70
2022/04/06 10:08:09;;;;;;;9.18;2.92;;;10.70;80.70;;;;;;5135056;28;20061;-68
2022/04/06 10:10:38;;;;;;;6.13;2.67;;;10.70;80.90;;;;;;5134913;28;20020;-69
2022/04/06 10:13:10;;;;;;;5.95;2.60;;;10.70;80.60;;;;;;5134823;28;20046;-69
2022/04/06 10:15:37;;;;;;;13.27;2.80;;;10.80;81.30;;;;;;5134866;28;20054;-68
2022/04/06 10:18:04;;;;;;;7.72;2.95;;;10.80;81.50;;;;;;5133742;28;20024;-69
2022/04/06 10:20:36;;;;;;;7.15;3.13;;;10.90;81.70;;;;;;5134667;28;20102;-69
2022/04/06 10:23:22;;;;;;;7.25;3.00;;;10.80;81.90;;;;;;5134652;28;20028;-67
2022/04/06 10:26:15;;;;;;;8.80;3.25;;;10.80;82.20;;;;;;5134581;28;20028;-67
2022/04/06 10:28:44;;;;;;;10.02;3.20;;;10.80;82.90;;;;;;5134495;28;20079;-67
2022/04/06 10:31:27;;;;;;;7.68;2.45;;;10.70;82.40;;;;;;5133487;28;20056;-67
2022/04/06 10:34:16;;;;;;;;;;;10.70;82.40;;;;;;5134909;28;20019;-67
2022/04/06 10:36:42;;;;;;;5.25;2.72;;;10.70;83.20;;;;;;5125733;28;19916;-67
2022/04/06 10:39:08;;;;;;;9.85;3.22;;;10.70;83.30;;;;;;5116437;28;20034;-67
2022/04/06 10:41:38;;;;;;;6.00;2.70;;;10.70;83.70;;;;;;5133350;28;20116;-67
2022/04/06 10:44:03;;;;;;;7.28;2.97;;;10.80;83.80;;;;;;5134393;28;20035;-67
2022/04/06 10:46:40;;;;;;;6.20;3.33;;;10.70;83.70;;;;;;5134292;28;20020;-67
2022/04/06 10:49:06;;;;;;;5.55;2.40;;;10.70;83.70;;;;;;5133233;28;20110;-68
2022/04/06 10:51:56;;;;;;;8.30;3.10;;;10.70;83.90;;;;;;5134193;28;20031;-67
2022/04/06 10:54:23;;;;;;;4.45;2.75;;;10.70;83.00;;;;;;5134189;28;20024;-68
2022/04/06 10:57:00;;;;;;;7.72;3.03;;;10.70;83.10;;;;;;5133043;28;20083;-68
2022/04/06 10:59:29;;;;;;;6.90;3.10;;;10.70;83.10;;;;;;5134187;27;20023;-68
2022/04/06 11:02:21;;;;;;;9.65;3.20;;;10.70;83.20;;;;;;5132992;28;20043;-68
2022/04/06 11:04:48;;;;;;;4.05;2.22;;;10.80;82.70;;;;;;5134053;28;20019;-68
2022/04/06 11:10:06;;;;;;;6.82;2.75;;;10.80;82.70;;;;;;5133986;28;20012;-68
2022/04/06 11:10:12;;;;;;;9.60;2.90;;;10.80;82.40;;;;;;5133903;28;20030;-68
2022/04/06 11:12:57;;;;;;;7.97;3.80;;;10.80;82.10;;;;;;5133885;28;20028;-68
2022/04/06 11:15:40;;;;;;;10.00;2.80;;;10.90;82.60;;;;;;5133928;28;20111;-68
2022/04/06 11:18:25;;;;;;;8.63;3.22;;;10.80;82.90;;;;;;5133893;28;20023;-68
2022/04/06 11:21:01;;;;;;;9.13;2.60;;;10.90;82.80;;;;;;5133825;28;20024;-68
2022/04/06 11:23:29;;;;;;;5.63;2.70;;;10.80;82.50;;;;;;5132915;28;20031;-68
2022/04/06 11:25:56;;;;;;;5.60;2.75;;;10.80;81.70;;;;;;5139045;28;20034;-68
2022/04/06 11:28:27;;;;;;;3.53;2.10;;;10.80;82.50;;;;;;5140546;27;20016;-68
2022/04/06 11:30:52;;;;;;;8.80;2.97;;;10.80;82.00;;;;;;5140601;27;20024;-68
2022/04/06 11:33:18;;;;;;;9.10;3.05;;;10.80;82.10;;;;;;5122403;28;20032;-68
2022/04/06 11:35:44;;;;;;;4.85;2.28;;;10.90;81.70;;;;;;5140355;27;20043;-68
2022/04/06 11:38:09;;;;;;;5.15;2.75;;;10.90;81.60;;;;;;5140526;27;20028;-68
2022/04/06 11:40:42;;;;;;;5.75;2.58;;;10.90;81.80;;;;;;5122491;28;20020;-68
2022/04/06 11:43:08;;;;;;;7.70;4.65;;;10.90;81.40;;;;;;5140530;27;20028;-68
2022/04/06 11:45:41;;;;;;;5.50;2.90;;;10.90;80.90;;;;;;5140372;28;20087;-68
2022/04/06 11:48:12;;;;;;;4.88;2.50;;;11.00;81.40;;;;;;5139486;28;20012;-68
2022/04/06 11:50:39;;;;;;;6.60;3.45;;;11.00;81.50;;;;;;5140571;27;20016;-68
2022/04/06 11:53:07;;;;;;;5.85;2.42;;;11.10;81.50;;;;;;5140391;27;20024;-68
2022/04/06 11:55:51;;;;;;;4.53;2.40;;;11.10;80.70;;;;;;5140359;27;20034;-68
2022/04/06 11:58:29;;;;;;;5.30;2.47;;;11.10;80.70;;;;;;5140515;28;20028;-67
2022/04/06 12:01:28;;;;;;;6.05;2.78;;;11.10;79.90;;;;;;5140290;28;20036;-67
2022/04/06 12:03:58;;;;;;;4.78;2.78;;;11.10;80.00;;;;;;5140135;27;20054;-67
2022/04/06 12:06:32;;;;;;;6.75;2.42;;;11.10;80.30;;;;;;5140427;27;20028;-68
2022/04/06 12:08:58;;;;;;;4.03;2.35;;;11.10;81.20;;;;;;5140307;27;20019;-68
2022/04/06 12:11:23;;;;;;;4.15;2.58;;;11.10;80.70;;;;;;5140325;28;20460;-67
2022/04/06 12:13:49;;;;;;;4.68;2.92;;;11.10;80.60;;;;;;5139080;28;20016;-69
2022/04/06 12:16:15;;;;;;;5.93;2.58;;;11.20;80.50;;;;;;5140234;27;20031;-67
2022/04/06 12:18:42;;;;;;;8.13;3.00;;;11.20;80.40;;;;;;5140079;28;20024;-67
2022/04/06 12:21:22;;;;;;;7.93;2.90;;;11.20;80.10;;;;;;5140064;27;20075;-67
2022/04/06 12:23:48;;;;;;;5.53;2.45;;;11.20;80.80;;;;;;5140024;28;20024;-67
2022/04/06 12:26:15;;;;;;;5.40;3.55;;;11.20;79.30;;;;;;5139915;27;20036;-67
2022/04/06 12:28:44;;;;;;;6.20;3.25;;;11.30;79.10;;;;;;5139894;27;20024;-67
2022/04/06 12:31:10;;;;;;;4.18;2.60;;;11.20;78.70;;;;;;5140033;27;20027;-68
2022/04/06 12:33:42;;;;;;;5.60;2.95;;;11.30;78.60;;;;;;5140008;27;20015;-68
2022/04/06 12:36:20;;;;;;;9.33;2.97;;;11.40;78.70;;;;;;5137964;28;20055;-67
2022/04/06 12:39:10;;;;;;;6.15;2.88;;;11.30;78.00;;;;;;5136810;28;20047;-67
2022/04/06 12:41:51;;;;;;;7.85;3.30;;;11.30;77.50;;;;;;5136707;28;20053;-67
2022/04/06 12:44:17;;;;;;;9.05;3.25;;;11.40;77.50;;;;;;5136568;28;20035;-67
2022/04/06 12:46:44;;;;;;;6.38;2.85;;;11.40;78.00;;;;;;5135606;28;20015;-67
2022/04/06 12:49:26;;;;;;;4.80;3.05;;;11.40;77.80;;;;;;5136658;28;20024;-67
2022/04/06 12:52:14;;;;;;;4.93;2.83;;;11.40;77.90;;;;;;5136550;28;20041;-67